createdAt,value
2022-08-06T00:00:06.767Z,97312.94
2022-08-06T00:02:31.759Z,97299.78
2022-08-06T00:05:05.107Z,97307.63
2022-08-06T00:07:48.234Z,97300.81
2022-08-06T00:10:19.039Z,97299.88
2022-08-06T00:12:48.720Z,97302.25
2022-08-06T00:16:09.958Z,97322.16
2022-08-06T00:18:09.195Z,97316.63
2022-08-06T00:20:42.102Z,97314.81
2022-08-06T00:23:16.573Z,97313.78
2022-08-06T00:25:52.567Z,97306.38
2022-08-06T00:28:30.760Z,97298.94
2022-08-06T00:31:06.007Z,97306.16
2022-08-06T00:33:43.931Z,97326.94
2022-08-06T00:36:28.606Z,97341.91
2022-08-06T00:39:00.996Z,97340.84
2022-08-06T00:41:42.290Z,97339.72
2022-08-06T00:44:14.389Z,97340.31
2022-08-06T00:46:44.883Z,97336.34
2022-08-06T00:49:13.521Z,97336.66
2022-08-06T00:52:01.786Z,97333.81
2022-08-06T00:54:35.993Z,97344.53
2022-08-06T00:57:06.934Z,97348.75
2022-08-06T00:59:38.885Z,97360.28
2022-08-06T01:02:09.846Z,97364.34
2022-08-06T01:04:38.726Z,97355.31
2022-08-06T01:07:09.145Z,97343.06
2022-08-06T01:09:45.969Z,97334.53
2022-08-06T01:12:33.471Z,97340.19
2022-08-06T01:15:16.193Z,97347.69
2022-08-06T01:17:59.525Z,97357.34
2022-08-06T01:21:56.948Z,97351.53
2022-08-06T01:23:54.080Z,97356.66
2022-08-06T01:26:46.646Z,97353.41
2022-08-06T01:29:23.949Z,97351.81
2022-08-06T01:32:07.088Z,97346.16
2022-08-06T01:34:41.914Z,97352.09
2022-08-06T01:37:25.032Z,97350.53
2022-08-06T01:40:02.616Z,97353.78
2022-08-06T01:42:36.288Z,97363.09
2022-08-06T01:45:14.468Z,97359.81
2022-08-06T01:47:54.630Z,97353.94
2022-08-06T01:50:30.868Z,97370.44
2022-08-06T01:53:03.552Z,97369.69
2022-08-06T01:55:59.087Z,97364.38
2022-08-06T01:58:31.902Z,97366.63
2022-08-06T02:01:08.606Z,97371.28
2022-08-06T02:03:49.967Z,97363.72
2022-08-06T02:06:33.379Z,97373.50
2022-08-06T02:09:21.970Z,97377.31
2022-08-06T02:12:03.646Z,97374.38
2022-08-06T02:14:41.642Z,97366.94
2022-08-06T02:17:16.204Z,97373.31
2022-08-06T02:20:05.019Z,97367.03
2022-08-06T02:22:42.402Z,97376.59
2022-08-06T02:25:22.362Z,97380.38
2022-08-06T02:27:59.826Z,97387.41
2022-08-06T02:30:36.732Z,97388.03
2022-08-06T02:33:08.947Z,97392.84
2022-08-06T02:35:46.670Z,97401.19
2022-08-06T02:38:28.702Z,97390.38
2022-08-06T02:41:03.920Z,97399.78
2022-08-06T02:43:41.234Z,97390.63
2022-08-06T02:46:17.376Z,97394.47
2022-08-06T02:48:53.308Z,97394.03
2022-08-06T02:52:10.094Z,97397.16
2022-08-06T02:54:26.287Z,97404.91
2022-08-06T02:57:04.290Z,97407.25
2022-08-06T02:59:46.037Z,97411.63
2022-08-06T03:02:27.494Z,97421.47
2022-08-06T03:05:02.080Z,97432.31
2022-08-06T03:07:34.399Z,97433.53
2022-08-06T03:10:13.033Z,97432.34
2022-08-06T03:12:44.071Z,97429.63
2022-08-06T03:15:58.380Z,97430.56
2022-08-06T03:18:08.093Z,97432.59
2022-08-06T03:20:38.958Z,97438.06
2022-08-06T03:23:10.881Z,97436.25
2022-08-06T03:25:42.515Z,97436.59
2022-08-06T03:28:22.442Z,97440.94
2022-08-06T03:30:55.271Z,97440.94
2022-08-06T03:33:41.893Z,97436.44
2022-08-06T03:36:17.280Z,97430.75
2022-08-06T03:38:54.636Z,97436.38
2022-08-06T03:41:29.166Z,97448.91
2022-08-06T03:44:05.121Z,97446.69
2022-08-06T03:46:39.441Z,97461.25
2022-08-06T03:49:26.063Z,97460.50
2022-08-06T03:51:58.242Z,97465.16
2022-08-06T03:54:34.202Z,97470.81
2022-08-06T03:57:09.878Z,97466.31
2022-08-06T03:59:59.010Z,97482.78
2022-08-06T04:02:37.315Z,97481.41
2022-08-06T04:05:21.078Z,97493.56
2022-08-06T04:07:59.771Z,97496.16
2022-08-06T04:10:38.980Z,97503.78
2022-08-06T04:14:03.930Z,97506.34
2022-08-06T04:16:02.021Z,97500.28
2022-08-06T04:18:41.545Z,97516.44
2022-08-06T04:21:20.799Z,97524.47
2022-08-06T04:24:10.323Z,97538.25
2022-08-06T04:26:41.319Z,97531.88
2022-08-06T04:29:17.933Z,97530.06
2022-08-06T04:32:11.584Z,97541.63
2022-08-06T04:36:07.649Z,97534.75
2022-08-06T04:37:39.022Z,97541.00
2022-08-06T04:40:15.223Z,97538.78
2022-08-06T04:42:44.740Z,97551.34
2022-08-06T04:46:16.506Z,97565.09
2022-08-06T04:48:06.106Z,97551.06
2022-08-06T04:50:37.255Z,97551.19
2022-08-06T04:53:09.095Z,97558.03
2022-08-06T04:55:41.481Z,97546.00
2022-08-06T04:58:32.895Z,97539.28
2022-08-06T05:01:10.833Z,97547.97
2022-08-06T05:04:06.959Z,97552.75
2022-08-06T05:06:40.764Z,97555.66
2022-08-06T05:09:23.418Z,97567.38
2022-08-06T05:12:18.170Z,97573.63
2022-08-06T05:14:55.400Z,97569.50
2022-08-06T05:17:34.924Z,97575.59
2022-08-06T05:20:27.405Z,97569.84
2022-08-06T05:23:08.982Z,97575.50
2022-08-06T05:25:54.140Z,97576.72
2022-08-06T05:28:27.646Z,97575.25
2022-08-06T05:30:57.554Z,97583.41
2022-08-06T05:33:29.827Z,97587.78
2022-08-06T05:36:01.800Z,97587.78
2022-08-06T05:38:35.698Z,97597.66
2022-08-06T05:41:07.617Z,97599.75
2022-08-06T05:44:00.403Z,97599.75
2022-08-06T05:46:28.347Z,97599.53
2022-08-06T05:49:54.544Z,97607.38
2022-08-06T05:52:00.172Z,97604.66
2022-08-06T05:54:42.639Z,97602.53
2022-08-06T05:57:16.949Z,97613.69
2022-08-06T05:59:57.337Z,97620.00
2022-08-06T06:02:30.958Z,97630.91
2022-08-06T06:06:06.344Z,97625.09
2022-08-06T06:08:08.302Z,97630.00
2022-08-06T06:10:53.325Z,97629.53
2022-08-06T06:13:32.542Z,97629.31
2022-08-06T06:16:28.658Z,97637.66
2022-08-06T06:19:16.313Z,97632.72
2022-08-06T06:21:58.208Z,97636.47
2022-08-06T06:24:37.536Z,97641.63
2022-08-06T06:27:35.875Z,97637.66
2022-08-06T06:30:11.975Z,97628.47
2022-08-06T06:33:01.235Z,97628.69
2022-08-06T06:35:36.188Z,97629.44
2022-08-06T06:38:26.092Z,97637.19
2022-08-06T06:41:19.870Z,97640.22
2022-08-06T06:43:58.277Z,97634.84
2022-08-06T06:46:40.890Z,97649.50
2022-08-06T06:50:00.272Z,97649.19
2022-08-06T06:52:30.887Z,97644.22
2022-08-06T06:55:18.957Z,97652.34
2022-08-06T06:57:53.996Z,97656.81
2022-08-06T07:00:45.441Z,97654.81
2022-08-06T07:03:15.222Z,97655.84
2022-08-06T07:06:05.341Z,97666.31
2022-08-06T07:08:42.715Z,97667.94
2022-08-06T07:11:20.728Z,97667.50
2022-08-06T07:13:52.879Z,97670.13
2022-08-06T07:16:35.213Z,97668.38
2022-08-06T07:19:10.378Z,97674.00
2022-08-06T07:21:51.368Z,97679.38
2022-08-06T07:24:33.381Z,97667.16
2022-08-06T07:27:14.491Z,97670.94
2022-08-06T07:29:50.035Z,97665.53
2022-08-06T07:32:32.357Z,97676.34
2022-08-06T07:35:12.246Z,97679.84
2022-08-06T07:37:55.554Z,97686.84
2022-08-06T07:40:30.668Z,97696.28
2022-08-06T07:43:11.495Z,97702.25
2022-08-06T07:45:56.638Z,97704.16
2022-08-06T07:48:33.355Z,97703.88
2022-08-06T07:51:05.054Z,97709.25
2022-08-06T07:53:53.164Z,97702.19
2022-08-06T07:56:29.494Z,97708.28
2022-08-06T07:59:00.078Z,97709.41
2022-08-06T08:01:36.322Z,97702.28
2022-08-06T08:04:34.800Z,97704.09
2022-08-06T08:07:13.136Z,97686.41
2022-08-06T08:10:02.039Z,97691.13
2022-08-06T08:12:37.737Z,97695.47
2022-08-06T08:15:17.878Z,97702.66
2022-08-06T08:17:57.531Z,97703.47
2022-08-06T08:20:34.413Z,97703.97
2022-08-06T08:23:07.900Z,97709.94
2022-08-06T08:25:42.171Z,97724.53
2022-08-06T08:28:15.255Z,97722.47
2022-08-06T08:30:49.430Z,97727.56
2022-08-06T08:33:19.606Z,97726.44
2022-08-06T08:36:00.915Z,97736.13
2022-08-06T08:38:31.088Z,97744.41
2022-08-06T08:41:05.766Z,97741.44
2022-08-06T08:44:00.274Z,97746.16
2022-08-06T08:46:32.410Z,97734.28
2022-08-06T08:49:16.030Z,97741.00
2022-08-06T08:51:47.784Z,97735.47
2022-08-06T08:54:23.516Z,97743.94
2022-08-06T08:57:11.685Z,97744.59
2022-08-06T08:59:56.989Z,97743.53
2022-08-06T09:02:30.631Z,97741.59
2022-08-06T09:05:00.516Z,97739.47
2022-08-06T09:07:36.932Z,97747.16
2022-08-06T09:10:09.200Z,97737.69
2022-08-06T09:12:45.428Z,97736.50
2022-08-06T09:15:18.994Z,97735.31
2022-08-06T09:18:12.479Z,97749.59
2022-08-06T09:20:41.355Z,97742.75
2022-08-06T09:23:19.186Z,97738.66
2022-08-06T09:25:52.171Z,97737.09
2022-08-06T09:28:36.353Z,97738.41
2022-08-06T09:31:09.945Z,97741.63
2022-08-06T09:34:29.093Z,97748.03
2022-08-06T09:36:45.707Z,97742.00
2022-08-06T09:39:14.682Z,97738.97
2022-08-06T09:41:53.916Z,97745.25
2022-08-06T09:44:35.262Z,97736.78
2022-08-06T09:47:07.618Z,97747.19
2022-08-06T09:50:00.509Z,97740.66
2022-08-06T09:52:29.693Z,97750.81
2022-08-06T09:55:01.226Z,97749.69
2022-08-06T09:57:45.779Z,97743.53
2022-08-06T10:00:29.199Z,97748.06
2022-08-06T10:02:59.593Z,97742.91
2022-08-06T10:05:50.473Z,97749.00
2022-08-06T10:08:22.632Z,97751.56
2022-08-06T10:10:53.350Z,97747.81
2022-08-06T10:13:26.105Z,97748.09
2022-08-06T10:16:00.659Z,97747.84
2022-08-06T10:18:56.644Z,97742.97
2022-08-06T10:21:40.171Z,97747.25
2022-08-06T10:24:13.051Z,97735.19
2022-08-06T10:26:44.938Z,97738.66
2022-08-06T10:29:16.561Z,97745.16
2022-08-06T10:31:52.751Z,97743.22
2022-08-06T10:34:30.822Z,97740.78
2022-08-06T10:37:10.938Z,97732.97
2022-08-06T10:40:08.275Z,97728.81
2022-08-06T10:42:40.556Z,97723.72
2022-08-06T10:45:14.246Z,97723.59
2022-08-06T10:48:58.345Z,97732.06
2022-08-06T10:50:50.900Z,97732.84
2022-08-06T10:54:02.645Z,97739.06
2022-08-06T10:56:25.708Z,97737.09
2022-08-06T10:59:00.838Z,97730.22
2022-08-06T11:01:43.907Z,97726.91
2022-08-06T11:04:35.123Z,97724.31
2022-08-06T11:08:09.137Z,97729.16
2022-08-06T11:10:51.323Z,97738.34
2022-08-06T11:13:36.971Z,97741.03
2022-08-06T11:16:27.959Z,97728.28
2022-08-06T11:19:07.153Z,97731.88
2022-08-06T11:21:59.083Z,97730.22
2022-08-06T11:24:37.558Z,97728.63
2022-08-06T11:27:11.029Z,97733.38
2022-08-06T11:30:12.633Z,97725.13
2022-08-06T11:32:50.941Z,97723.09
2022-08-06T11:35:51.768Z,97728.25
2022-08-06T11:39:10.019Z,97717.97
2022-08-06T11:41:57.722Z,97718.25
2022-08-06T11:44:34.347Z,97714.66
2022-08-06T11:47:24.653Z,97717.53
2022-08-06T11:50:02.965Z,97713.22
2022-08-06T11:52:43.999Z,97721.28
2022-08-06T11:55:22.817Z,97716.34
2022-08-06T11:58:23.551Z,97705.97
2022-08-06T12:01:03.989Z,97709.31
2022-08-06T12:03:52.265Z,97702.69
2022-08-06T12:06:26.601Z,97701.00
2022-08-06T12:09:20.953Z,97700.66
2022-08-06T12:11:53.889Z,97695.53
2022-08-06T12:14:49.148Z,97708.63
2022-08-06T12:17:20.093Z,97708.31
2022-08-06T12:20:01.843Z,97696.41
2022-08-06T12:22:33.927Z,97702.72
2022-08-06T12:25:11.078Z,97699.53
2022-08-06T12:27:54.341Z,97699.97
2022-08-06T12:30:36.681Z,97696.91
2022-08-06T12:33:15.495Z,97687.47
2022-08-06T12:35:53.725Z,97700.59
2022-08-06T12:38:28.467Z,97689.25
2022-08-06T12:40:58.499Z,97697.66
2022-08-06T12:43:46.304Z,97681.81
2022-08-06T12:46:20.818Z,97683.56
2022-08-06T12:48:53.179Z,97675.91
2022-08-06T12:51:27.502Z,97668.56
2022-08-06T12:54:00.305Z,97664.44
2022-08-06T12:56:37.383Z,97669.25
2022-08-06T12:59:22.698Z,97666.47
2022-08-06T13:02:09.120Z,97669.75
2022-08-06T13:04:44.577Z,97660.75
2022-08-06T13:07:14.899Z,97654.41
2022-08-06T13:10:33.011Z,97650.72
2022-08-06T13:14:13.163Z,97661.13
2022-08-06T13:16:02.033Z,97658.09
2022-08-06T13:18:47.724Z,97657.50
2022-08-06T13:21:22.120Z,97653.97
2022-08-06T13:23:54.138Z,97646.75
2022-08-06T13:26:26.849Z,97647.81
2022-08-06T13:30:35.628Z,97647.50
2022-08-06T13:32:19.109Z,97645.88
2022-08-06T13:34:53.197Z,97642.59
2022-08-06T13:37:55.689Z,97640.06
2022-08-06T13:40:41.826Z,97638.63
2022-08-06T13:43:39.872Z,97633.78
2022-08-06T13:46:15.536Z,97627.13
2022-08-06T13:48:49.508Z,97635.69
2022-08-06T13:51:22.670Z,97629.03
2022-08-06T13:53:59.238Z,97622.53
2022-08-06T13:56:34.104Z,97620.56
2022-08-06T13:59:02.454Z,97624.41
2022-08-06T14:01:44.570Z,97626.28
2022-08-06T14:04:22.912Z,97624.56
2022-08-06T14:06:59.327Z,97622.69
2022-08-06T14:09:58.035Z,97623.81
2022-08-06T14:12:20.646Z,97617.88
2022-08-06T14:14:50.546Z,97620.78
2022-08-06T14:17:19.696Z,97625.44
2022-08-06T14:20:16.296Z,97620.31
2022-08-06T14:22:42.945Z,97623.88
2022-08-06T14:25:11.997Z,97614.69
2022-08-06T14:27:43.621Z,97613.34
2022-08-06T14:30:29.673Z,97613.56
2022-08-06T14:33:02.988Z,97616.13
2022-08-06T14:35:50.448Z,97615.41
2022-08-06T14:38:30.395Z,97602.28
2022-08-06T14:41:27.315Z,97606.63
2022-08-06T14:44:24.687Z,97607.97
2022-08-06T14:46:53.225Z,97609.44
2022-08-06T14:49:21.661Z,97606.44
2022-08-06T14:52:19.919Z,97607.28
2022-08-06T14:54:41.611Z,97611.56
2022-08-06T14:57:15.151Z,97607.16
2022-08-06T14:59:48.775Z,97601.13
2022-08-06T15:02:24.862Z,97598.16
2022-08-06T15:04:54.148Z,97597.88
2022-08-06T15:07:26.991Z,97593.13
2022-08-06T15:10:27.122Z,97594.56
2022-08-06T15:13:01.214Z,97589.34
2022-08-06T15:15:47.029Z,97590.91
2022-08-06T15:18:54.122Z,97594.47
2022-08-06T15:21:51.510Z,97587.53
2022-08-06T15:24:31.660Z,97588.81
2022-08-06T15:27:14.315Z,97589.88
2022-08-06T15:29:47.393Z,97579.66
2022-08-06T15:32:18.999Z,97581.91
2022-08-06T15:34:51.253Z,97576.41
2022-08-06T15:37:54.349Z,97571.19
2022-08-06T15:40:13.193Z,97575.53
2022-08-06T15:42:46.346Z,97574.09
2022-08-06T15:45:49.893Z,97562.63
2022-08-06T15:48:06.909Z,97570.13
2022-08-06T15:50:43.092Z,97579.91
2022-08-06T15:53:23.031Z,97577.78
2022-08-06T15:55:54.920Z,97582.41
2022-08-06T15:58:28.303Z,97577.13
2022-08-06T16:01:03.572Z,97579.94
2022-08-06T16:03:37.857Z,97577.09
2022-08-06T16:06:25.911Z,97568.84
2022-08-06T16:09:00.838Z,97568.28
2022-08-06T16:11:48.295Z,97565.53
2022-08-06T16:14:33.430Z,97560.06
2022-08-06T16:17:09.965Z,97561.59
2022-08-06T16:19:49.135Z,97558.19
2022-08-06T16:22:20.457Z,97565.00
2022-08-06T16:24:50.110Z,97557.94
2022-08-06T16:27:27.327Z,97554.31
2022-08-06T16:30:09.326Z,97555.56
2022-08-06T16:32:38.767Z,97563.63
2022-08-06T16:35:15.307Z,97555.81
2022-08-06T16:37:51.699Z,97561.69
2022-08-06T16:40:24.545Z,97560.25
2022-08-06T16:42:56.847Z,97559.25
2022-08-06T16:45:37.286Z,97555.84
2022-08-06T16:48:22.081Z,97557.69
2022-08-06T16:51:02.397Z,97556.56
2022-08-06T16:54:14.443Z,97563.97
2022-08-06T16:56:21.673Z,97563.03
2022-08-06T16:58:54.739Z,97562.53
2022-08-06T17:04:23.680Z,97546.03
2022-08-06T17:06:56.334Z,97554.69
2022-08-06T17:09:25.909Z,97548.88
2022-08-06T17:12:00.531Z,97559.16
2022-08-06T17:14:33.151Z,97552.97
2022-08-06T17:17:06.884Z,97555.78
2022-08-06T17:19:41.748Z,97549.84
2022-08-06T17:22:12.764Z,97542.69
2022-08-06T17:30:22.318Z,97543.94
2022-08-06T17:32:54.406Z,97543.59
2022-08-06T17:35:23.242Z,97546.84
2022-08-06T17:38:16.189Z,97546.94
2022-08-06T17:40:49.487Z,97555.31
2022-08-06T17:43:22.407Z,97546.53
2022-08-06T17:46:00.206Z,97547.31
2022-08-06T17:48:32.310Z,97546.53
2022-08-06T17:51:09.770Z,97550.88
2022-08-06T17:53:53.325Z,97548.88
2022-08-06T17:56:30.903Z,97548.84
2022-08-06T17:59:17.489Z,97556.00
2022-08-06T18:02:10.870Z,97555.94
2022-08-06T18:05:02.551Z,97564.25
2022-08-06T18:08:11.279Z,97564.22
2022-08-06T18:10:31.114Z,97565.78
2022-08-06T18:13:01.931Z,97574.47
2022-08-06T18:15:40.488Z,97571.16
2022-08-06T18:18:20.240Z,97573.81
2022-08-06T18:20:50.172Z,97568.91
2022-08-06T18:23:20.833Z,97572.03
2022-08-06T18:25:56.121Z,97578.22
2022-08-06T18:28:39.947Z,97583.69
2022-08-06T18:31:19.947Z,97587.50
2022-08-06T18:33:54.113Z,97585.72
2022-08-06T18:36:32.927Z,97590.41
2022-08-06T18:39:02.438Z,97586.69
2022-08-06T18:41:33.065Z,97595.09
2022-08-06T18:44:01.943Z,97606.38
2022-08-06T18:46:57.508Z,97605.03
2022-08-06T18:49:32.438Z,97600.41
2022-08-06T18:52:24.900Z,97600.59
2022-08-06T18:54:56.895Z,97613.38
2022-08-06T18:57:37.954Z,97615.19
2022-08-06T19:00:21.079Z,97620.00
2022-08-06T19:02:52.751Z,97629.16
2022-08-06T19:05:26.943Z,97618.66
2022-08-06T19:07:58.655Z,97628.81
2022-08-06T19:13:12.225Z,97620.94
2022-08-06T19:15:52.101Z,97629.34
2022-08-06T19:18:34.099Z,97629.63
2022-08-06T19:21:16.988Z,97632.72
2022-08-06T19:24:02.393Z,97630.44
2022-08-06T19:26:40.540Z,97634.41
2022-08-06T19:30:02.017Z,97638.53
2022-08-06T19:33:21.449Z,97638.00
2022-08-06T19:36:45.704Z,97645.44
2022-08-06T19:39:54.152Z,97644.81
2022-08-06T19:42:31.853Z,97646.97
2022-08-06T19:45:04.247Z,97637.75
2022-08-06T19:47:49.227Z,97637.75
2022-08-06T19:50:19.916Z,97638.75
2022-08-06T19:52:53.359Z,97637.19
2022-08-06T19:56:06.787Z,97640.38
2022-08-06T19:58:26.037Z,97643.31
2022-08-06T20:01:31.240Z,97645.78
2022-08-06T20:04:01.922Z,97649.16
2022-08-06T20:07:01.778Z,97651.22
2022-08-06T20:09:59.152Z,97652.38
2022-08-06T20:12:32.330Z,97653.34
2022-08-06T20:15:07.892Z,97656.63
2022-08-06T20:17:48.646Z,97650.81
2022-08-06T20:20:29.294Z,97651.63
2022-08-06T20:23:08.651Z,97649.91
2022-08-06T20:26:09.447Z,97651.06
2022-08-06T20:29:07.547Z,97651.28
2022-08-06T20:31:23.886Z,97650.94
2022-08-06T20:33:58.275Z,97650.66
2022-08-06T20:36:30.876Z,97651.97
2022-08-06T20:39:00.839Z,97646.22
2022-08-06T20:42:03.649Z,97650.03
2022-08-06T20:44:23.507Z,97646.03
2022-08-06T20:47:46.193Z,97638.34
2022-08-06T20:50:02.928Z,97646.28
2022-08-06T20:52:33.733Z,97640.19
2022-08-06T20:55:04.309Z,97634.47
2022-08-06T20:57:45.824Z,97623.88
2022-08-06T21:00:21.873Z,97633.28
2022-08-06T21:03:03.368Z,97629.31
2022-08-06T21:05:51.161Z,97627.34
2022-08-06T21:08:26.752Z,97626.09
2022-08-06T21:10:58.428Z,97628.94
2022-08-06T21:13:48.805Z,97630.69
2022-08-06T21:16:28.706Z,97629.78
2022-08-06T21:19:02.562Z,97629.09
2022-08-06T21:21:31.417Z,97625.31
2022-08-06T21:24:01.367Z,97629.69
2022-08-06T21:26:34.756Z,97627.41
2022-08-06T21:30:07.132Z,97625.56
2022-08-06T21:31:57.964Z,97621.88
2022-08-06T21:34:27.964Z,97627.09
2022-08-06T21:36:57.074Z,97622.69
2022-08-06T21:39:30.138Z,97621.81
2022-08-06T21:42:16.780Z,97618.44
2022-08-06T21:44:49.984Z,97624.91
2022-08-06T21:47:19.708Z,97623.50
2022-08-06T21:49:59.651Z,97630.16
2022-08-06T21:52:35.724Z,97629.16
2022-08-06T21:56:35.505Z,97639.59
2022-08-06T21:58:02.855Z,97638.53
2022-08-06T22:00:45.237Z,97641.84
2022-08-06T22:04:38.732Z,97643.09
2022-08-06T22:06:21.693Z,97638.75
2022-08-06T22:08:57.357Z,97638.75
2022-08-06T22:12:36.370Z,97636.00
2022-08-06T22:14:28.403Z,97641.22
2022-08-06T22:17:06.023Z,97634.22
2022-08-06T22:19:39.195Z,97632.41
2022-08-06T22:22:08.307Z,97632.44
2022-08-06T22:24:39.210Z,97634.28
2022-08-06T22:27:12.672Z,97637.75
2022-08-06T22:30:04.407Z,97634.78
2022-08-06T22:32:39.789Z,97635.44
2022-08-06T22:35:11.342Z,97634.06
2022-08-06T22:38:17.323Z,97637.28
2022-08-06T22:40:30.087Z,97641.19
2022-08-06T22:43:05.389Z,97640.50
2022-08-06T22:46:01.250Z,97644.53
2022-08-06T22:48:35.587Z,97641.19
2022-08-06T22:51:10.843Z,97643.16
2022-08-06T22:54:26.843Z,97647.75
2022-08-06T22:56:38.199Z,97643.13
2022-08-06T22:59:31.954Z,97646.81
2022-08-06T23:02:06.157Z,97639.25
2022-08-06T23:04:42.411Z,97636.03
2022-08-06T23:07:25.220Z,97635.34
2022-08-06T23:10:02.387Z,97635.53
2022-08-06T23:12:36.673Z,97636.03
2022-08-06T23:15:30.321Z,97629.69
2022-08-06T23:18:00.382Z,97621.75
2022-08-06T23:20:31.675Z,97622.69
2022-08-06T23:23:03.018Z,97614.50
2022-08-06T23:25:59.869Z,97624.88
2022-08-06T23:28:22.925Z,97624.44
2022-08-06T23:30:52.249Z,97632.84
2022-08-06T23:33:20.972Z,97624.31
2022-08-06T23:35:50.700Z,97617.19
2022-08-06T23:38:31.677Z,97613.25
2022-08-06T23:41:16.311Z,97609.22
2022-08-06T23:43:49.741Z,97621.72
2022-08-06T23:46:26.995Z,97620.16
2022-08-06T23:48:56.473Z,97620.16
2022-08-06T23:51:35.805Z,97631.19
2022-08-06T23:54:23.042Z,97626.81
2022-08-06T23:56:57.821Z,97629.66
2022-08-06T23:59:44.691Z,97626.56
